Time;durP1;ratioP1;P1;durP2;ratioP2;P2;SDS_P1;SDS_P2;PMS_P1;PMS_P2;Temp;Humidity;BMP_temperature;BMP_pressure;BME280_temperature;BME280_humidity;BME280_pressure;Samples;Min_cycle;Max_cycle;Signal;HPM_P1;HPM_P2
2022/09/21 00:02:01;;;;;;;5.53;3.03;;;;;;;;;;5044726;28;20103;-82
2022/09/21 00:04:26;;;;;;;4.22;2.97;;;;;;;;;;5044131;28;20371;-82
2022/09/21 00:06:52;;;;;;;3.92;2.60;;;;;;;;;;5044391;28;20029;-83
2022/09/21 00:09:17;;;;;;;7.15;2.70;;;;;;;;;;5044256;28;20020;-82
2022/09/21 00:11:53;;;;;;;3.13;2.40;;;;;;;;;;5044208;28;20032;-83
2022/09/21 00:14:18;;;;;;;7.47;2.90;;;;;;;;;;5039129;28;20670;-83
2022/09/21 00:16:44;;;;;;;4.22;2.60;;;;;;;;;;5045176;28;20032;-83
2022/09/21 00:19:09;;;;;;;5.50;2.30;;;;;;;;;;5043540;28;20021;-83
2022/09/21 00:21:37;;;;;;;2.30;2.10;;;;;;;;;;5044694;28;20036;-82
2022/09/21 00:24:03;;;;;;;4.25;2.53;;;;;;;;;;5046177;28;20029;-81
2022/09/21 00:26:29;;;;;;;2.75;2.33;;;;;;;;;;5028473;28;20039;-81
2022/09/21 00:28:57;;;;;;;8.68;2.70;;;;;;;;;;5044170;28;20104;-82
2022/09/21 00:31:23;;;;;;;7.03;3.08;;;;;;;;;;5045625;28;20033;-82
2022/09/21 00:33:49;;;;;;;6.05;2.83;;;;;;;;;;5044172;28;20040;-81
2022/09/21 00:36:16;;;;;;;4.00;2.42;;;;;;;;;;5045274;28;20060;-82
2022/09/21 00:38:43;;;;;;;6.93;2.50;;;;;;;;;;5043191;28;20087;-81
2022/09/21 00:41:10;;;;;;;6.53;2.67;;;;;;;;;;5047339;28;20032;-83
2022/09/21 00:43:37;;;;;;;6.70;3.00;;;;;;;;;;5049831;28;20320;-82
2022/09/21 00:46:29;;;;;;;2.58;2.17;;;;;;;;;;5046588;28;20412;-81
2022/09/21 00:48:55;;;;;;;7.15;2.70;;;;;;;;;;5026680;28;20044;-81
2022/09/21 00:51:20;;;;;;;3.95;2.60;;;;;;;;;;5053993;28;20108;-82
2022/09/21 00:53:52;;;;;;;8.02;2.50;;;;;;;;;;5051776;28;20059;-82
2022/09/21 00:56:19;;;;;;;4.70;3.50;;;;;;;;;;5050637;28;20960;-82
2022/09/21 00:58:48;;;;;;;3.42;2.33;;;;;;;;;;5051935;28;20050;-81
2022/09/21 01:01:15;;;;;;;4.72;2.63;;;;;;;;;;5052335;28;20044;-82
2022/09/21 01:03:43;;;;;;;3.35;2.47;;;;;;;;;;5053502;28;20017;-81
2022/09/21 01:06:08;;;;;;;3.53;2.65;;;;;;;;;;5037787;28;20498;-82
2022/09/21 01:08:36;;;;;;;8.18;3.53;;;;;;;;;;5035527;28;20017;-82
2022/09/21 01:11:19;;;;;;;4.07;2.92;;;;;;;;;;5050626;28;20032;-82
2022/09/21 01:14:12;;;;;;;5.25;2.75;;;;;;;;;;5053333;28;20052;-82
2022/09/21 01:16:53;;;;;;;3.78;2.65;;;;;;;;;;5052655;28;20021;-82
2022/09/21 01:19:30;;;;;;;5.50;2.90;;;;;;;;;;5053454;28;20028;-82
2022/09/21 01:22:14;;;;;;;5.13;2.65;;;;;;;;;;5034282;28;20483;-82
2022/09/21 01:24:57;;;;;;;4.30;2.90;;;;;;;;;;5049221;28;20028;-82
2022/09/21 01:27:34;;;;;;;2.70;2.33;;;;;;;;;;5052259;28;20029;-83
2022/09/21 01:30:06;;;;;;;12.90;2.50;;;;;;;;;;5053244;28;20021;-83
2022/09/21 01:32:43;;;;;;;4.75;2.85;;;;;;;;;;5051348;28;20089;-82
2022/09/21 01:35:15;;;;;;;6.03;3.03;;;;;;;;;;5051488;28;20037;-80
2022/09/21 01:37:49;;;;;;;4.05;2.50;;;;;;;;;;5051860;28;20112;-82
2022/09/21 01:40:26;;;;;;;4.55;3.10;;;;;;;;;;5053062;28;20036;-82
2022/09/21 01:42:54;;;;;;;4.63;2.75;;;;;;;;;;5052621;28;20025;-83
2022/09/21 01:45:27;;;;;;;4.38;2.60;;;;;;;;;;5053489;28;20478;-83
2022/09/21 01:47:55;;;;;;;5.80;3.00;;;;;;;;;;5033249;28;20183;-83
2022/09/21 01:50:21;;;;;;;4.22;2.60;;;;;;;;;;5055332;28;20482;-84
2022/09/21 01:53:03;;;;;;;5.03;2.78;;;;;;;;;;5051051;28;20041;-83
2022/09/21 01:55:45;;;;;;;;;;;;;;;;;;5049709;28;20528;-81
2022/09/21 01:58:28;;;;;;;4.90;2.72;;;;;;;;;;5048119;28;19919;-83
2022/09/21 02:00:56;;;;;;;4.32;2.55;;;;;;;;;;5051873;28;20521;-83
2022/09/21 02:03:31;;;;;;;4.78;3.03;;;;;;;;;;5051252;28;20057;-83
2022/09/21 02:05:58;;;;;;;3.97;2.70;;;;;;;;;;5050673;28;20116;-83
2022/09/21 02:08:27;;;;;;;6.13;2.97;;;;;;;;;;5051294;28;20021;-82
2022/09/21 02:10:53;;;;;;;3.88;2.80;;;;;;;;;;5052876;28;20039;-81
2022/09/21 02:13:22;;;;;;;6.53;2.72;;;;;;;;;;5047047;28;20040;-82
2022/09/21 02:16:05;;;;;;;5.45;2.92;;;;;;;;;;5052284;28;20105;-81
2022/09/21 02:18:47;;;;;;;5.43;3.05;;;;;;;;;;5049419;28;20360;-81
2022/09/21 02:21:39;;;;;;;4.22;2.50;;;;;;;;;;5048421;28;20048;-81
2022/09/21 02:24:12;;;;;;;5.00;3.00;;;;;;;;;;5048773;28;20021;-82
2022/09/21 02:26:52;;;;;;;6.28;2.97;;;;;;;;;;5051154;28;20051;-81
2022/09/21 02:29:21;;;;;;;5.47;2.75;;;;;;;;;;5032944;28;20025;-82
2022/09/21 02:32:07;;;;;;;7.28;2.90;;;;;;;;;;5051746;28;20531;-82
2022/09/21 02:34:46;;;;;;;3.05;2.60;;;;;;;;;;5051295;28;20047;-82
2022/09/21 02:37:48;;;;;;;6.22;2.85;;;;;;;;;;5050146;28;20797;-81
2022/09/21 02:40:29;;;;;;;4.28;3.00;;;;;;;;;;5030394;28;20193;-82
2022/09/21 02:43:04;;;;;;;4.78;2.80;;;;;;;;;;5051174;28;20024;-82
2022/09/21 02:45:34;;;;;;;5.13;3.08;;;;;;;;;;5051289;28;20028;-82
2022/09/21 02:48:06;;;;;;;4.55;2.67;;;;;;;;;;5049845;28;20024;-82
2022/09/21 02:50:40;;;;;;;6.85;2.80;;;;;;;;;;5045529;28;20028;-82
2022/09/21 02:53:08;;;;;;;5.55;3.08;;;;;;;;;;5047380;28;20542;-80
2022/09/21 02:55:35;;;;;;;5.47;2.75;;;;;;;;;;5048022;28;20048;-81
2022/09/21 02:58:04;;;;;;;6.82;3.28;;;;;;;;;;5048763;28;20031;-82
2022/09/21 03:00:30;;;;;;;4.68;3.03;;;;;;;;;;5054660;28;20024;-81
2022/09/21 03:02:55;;;;;;;4.70;2.60;;;;;;;;;;5036180;28;20058;-81
2022/09/21 03:05:20;;;;;;;5.00;3.00;;;;;;;;;;5049754;28;20032;-82
2022/09/21 03:07:46;;;;;;;3.10;2.47;;;;;;;;;;5035218;28;20482;-81
2022/09/21 03:10:11;;;;;;;4.00;2.65;;;;;;;;;;5052448;28;20040;-81
2022/09/21 03:12:37;;;;;;;9.60;3.03;;;;;;;;;;5052721;28;20100;-83
2022/09/21 03:15:03;;;;;;;5.63;2.78;;;;;;;;;;5052852;28;20389;-82
2022/09/21 03:17:28;;;;;;;9.07;3.10;;;;;;;;;;5034502;28;20027;-81
2022/09/21 03:19:54;;;;;;;7.25;2.90;;;;;;;;;;5053535;28;20025;-82
2022/09/21 03:22:21;;;;;;;4.40;2.80;;;;;;;;;;5055634;28;20041;-81
2022/09/21 03:24:47;;;;;;;3.92;2.63;;;;;;;;;;5063225;28;20567;-80
2022/09/21 03:27:13;;;;;;;5.15;2.85;;;;;;;;;;5058532;28;20112;-80
2022/09/21 03:29:39;;;;;;;4.82;3.00;;;;;;;;;;5056911;28;20080;-80
2022/09/21 03:32:05;;;;;;;4.05;2.50;;;;;;;;;;5059738;28;20056;-82
2022/09/21 03:34:32;;;;;;;7.35;3.00;;;;;;;;;;5050937;28;20032;-81
2022/09/21 03:36:59;;;;;;;4.65;3.08;;;;;;;;;;5050099;28;20029;-82
2022/09/21 03:39:24;;;;;;;4.93;3.20;;;;;;;;;;5051325;28;20092;-83
2022/09/21 03:41:50;;;;;;;3.33;2.63;;;;;;;;;;5049732;28;20033;-82
2022/09/21 03:44:16;;;;;;;4.95;2.72;;;;;;;;;;5051884;28;20033;-82
2022/09/21 03:46:42;;;;;;;6.47;2.65;;;;;;;;;;5049422;28;20471;-82
2022/09/21 03:49:07;;;;;;;7.40;2.92;;;;;;;;;;5050097;28;20025;-81
2022/09/21 03:51:32;;;;;;;6.38;2.97;;;;;;;;;;5050347;28;20033;-82
2022/09/21 03:53:58;;;;;;;4.28;2.97;;;;;;;;;;5049510;28;20116;-82
2022/09/21 03:56:23;;;;;;;4.78;2.53;;;;;;;;;;5050426;28;20052;-81
2022/09/21 03:58:49;;;;;;;4.90;3.17;;;;;;;;;;5049982;28;20465;-82
2022/09/21 04:01:14;;;;;;;5.70;3.22;;;;;;;;;;5048857;28;20171;-82
2022/09/21 04:03:39;;;;;;;5.18;3.03;;;;;;;;;;5050219;28;20151;-82
2022/09/21 04:06:10;;;;;;;7.13;3.00;;;;;;;;;;5049369;28;20394;-82
2022/09/21 04:08:36;;;;;;;5.03;3.13;;;;;;;;;;5049953;28;20108;-82
2022/09/21 04:11:11;;;;;;;6.00;3.00;;;;;;;;;;5050926;28;20120;-82
2022/09/21 04:13:37;;;;;;;5.50;3.05;;;;;;;;;;5048854;28;20482;-82
2022/09/21 04:16:03;;;;;;;6.75;2.92;;;;;;;;;;5053498;28;20025;-82
2022/09/21 04:18:28;;;;;;;7.15;2.97;;;;;;;;;;5054540;28;20052;-82
2022/09/21 04:20:54;;;;;;;4.30;2.97;;;;;;;;;;5054012;28;20025;-83
2022/09/21 04:23:19;;;;;;;5.22;3.25;;;;;;;;;;5055316;28;20028;-83
2022/09/21 04:25:47;;;;;;;3.50;2.95;;;;;;;;;;5053991;28;20075;-83
2022/09/21 04:28:13;;;;;;;5.78;3.05;;;;;;;;;;5054230;28;20021;-83
2022/09/21 04:30:39;;;;;;;11.43;3.85;;;;;;;;;;5054702;28;20051;-82
2022/09/21 04:33:04;;;;;;;12.85;3.35;;;;;;;;;;5054029;28;20045;-82
2022/09/21 04:35:30;;;;;;;7.55;3.03;;;;;;;;;;5055712;28;20050;-82
2022/09/21 04:37:55;;;;;;;6.18;3.50;;;;;;;;;;5053826;28;20423;-82
2022/09/21 04:40:22;;;;;;;2.92;2.70;;;;;;;;;;5054489;28;20065;-81
2022/09/21 04:42:57;;;;;;;4.93;3.33;;;;;;;;;;5057392;28;20020;-81
2022/09/21 04:45:23;;;;;;;5.93;3.00;;;;;;;;;;5061760;28;20025;-80
2022/09/21 04:47:48;;;;;;;5.35;3.30;;;;;;;;;;5061266;28;20029;-80
2022/09/21 04:50:14;;;;;;;5.57;3.50;;;;;;;;;;5062039;28;20025;-81
2022/09/21 04:52:40;;;;;;;5.50;3.05;;;;;;;;;;5059599;28;20024;-81
2022/09/21 04:55:06;;;;;;;4.20;3.22;;;;;;;;;;5057801;28;20048;-82
2022/09/21 04:57:32;;;;;;;5.20;2.80;;;;;;;;;;5055248;28;20098;-82
2022/09/21 04:59:57;;;;;;;3.88;2.80;;;;;;;;;;5053589;28;20025;-82
2022/09/21 05:02:23;;;;;;;7.13;3.80;;;;;;;;;;5053612;28;20021;-80
2022/09/21 05:04:48;;;;;;;4.78;3.08;;;;;;;;;;5052627;28;20032;-81
2022/09/21 05:07:14;;;;;;;6.13;3.13;;;;;;;;;;5050282;28;20025;-81
2022/09/21 05:12:24;;;;;;;5.32;3.03;;;;;;;;;;5053111;28;20047;-82
2022/09/21 05:14:49;;;;;;;8.60;3.08;;;;;;;;;;5052234;28;20028;-82
2022/09/21 05:17:15;;;;;;;5.15;3.03;;;;;;;;;;5054268;28;20032;-82
2022/09/21 05:19:40;;;;;;;4.60;3.08;;;;;;;;;;5036439;28;20021;-82
2022/09/21 05:22:05;;;;;;;5.72;3.40;;;;;;;;;;5053266;28;20572;-82
2022/09/21 05:24:31;;;;;;;5.38;2.90;;;;;;;;;;5054422;28;20013;-83
2022/09/21 05:26:56;;;;;;;6.63;3.00;;;;;;;;;;5052969;28;20057;-82
2022/09/21 05:29:22;;;;;;;7.80;3.35;;;;;;;;;;5053911;28;20041;-83
2022/09/21 05:31:53;;;;;;;7.63;3.30;;;;;;;;;;5052798;28;20029;-82
2022/09/21 05:34:41;;;;;;;6.18;3.03;;;;;;;;;;5049956;28;20068;-82
2022/09/21 05:37:28;;;;;;;6.05;3.70;;;;;;;;;;5013853;28;20199;-82
2022/09/21 05:39:53;;;;;;;5.32;3.03;;;;;;;;;;5057953;28;20108;-80
2022/09/21 05:42:25;;;;;;;4.90;3.33;;;;;;;;;;5060265;28;20071;-81
2022/09/21 05:44:50;;;;;;;3.47;3.05;;;;;;;;;;5063672;28;20081;-83
2022/09/21 05:47:48;;;;;;;8.55;3.15;;;;;;;;;;5059143;28;20116;-81
2022/09/21 05:50:33;;;;;;;10.38;3.78;;;;;;;;;;5043564;28;20063;-83
2022/09/21 05:53:23;;;;;;;7.55;4.85;;;;;;;;;;5056943;28;20335;-81
2022/09/21 05:56:02;;;;;;;4.60;3.20;;;;;;;;;;5051570;28;20394;-79
2022/09/21 05:58:36;;;;;;;6.28;3.40;;;;;;;;;;5050034;28;20028;-78
2022/09/21 06:01:34;;;;;;;7.25;3.67;;;;;;;;;;5053461;28;20023;-79
2022/09/21 06:04:01;;;;;;;5.72;3.80;;;;;;;;;;5047843;28;20036;-77
2022/09/21 06:06:26;;;;;;;6.85;3.88;;;;;;;;;;5052191;28;20033;-80
2022/09/21 06:08:54;;;;;;;7.38;4.53;;;;;;;;;;5051406;28;20429;-79
2022/09/21 06:11:20;;;;;;;7.00;3.83;;;;;;;;;;5054346;28;20398;-79
2022/09/21 06:13:45;;;;;;;5.80;3.70;;;;;;;;;;5055470;28;20024;-81
2022/09/21 06:16:11;;;;;;;7.88;4.10;;;;;;;;;;5053417;28;20682;-81
2022/09/21 06:18:38;;;;;;;8.77;4.78;;;;;;;;;;5054475;28;20088;-80
2022/09/21 06:21:04;;;;;;;9.15;5.15;;;;;;;;;;5050646;28;20028;-82
2022/09/21 06:23:29;;;;;;;6.82;4.40;;;;;;;;;;5053203;28;20051;-80
2022/09/21 06:25:54;;;;;;;13.52;5.22;;;;;;;;;;5054831;28;20036;-80
2022/09/21 06:28:20;;;;;;;6.90;4.75;;;;;;;;;;5053770;28;20083;-80
2022/09/21 06:30:53;;;;;;;10.38;4.68;;;;;;;;;;5053523;28;20090;-81
2022/09/21 06:33:20;;;;;;;12.48;4.30;;;;;;;;;;5051924;28;20025;-80
2022/09/21 06:35:59;;;;;;;9.57;4.75;;;;;;;;;;5035148;28;20440;-86
2022/09/21 06:38:25;;;;;;;9.85;4.13;;;;;;;;;;5057082;28;20017;-85
2022/09/21 06:40:51;;;;;;;7.30;3.83;;;;;;;;;;5055605;28;20029;-84
2022/09/21 06:43:17;;;;;;;7.88;3.90;;;;;;;;;;5055341;28;20032;-86
2022/09/21 06:45:43;;;;;;;6.38;4.25;;;;;;;;;;5056974;28;20368;-85
2022/09/21 06:48:09;;;;;;;5.18;4.18;;;;;;;;;;5055076;28;20033;-85
2022/09/21 06:50:35;;;;;;;4.13;2.95;;;;;;;;;;5039691;28;20108;-85
2022/09/21 06:53:01;;;;;;;7.40;3.70;;;;;;;;;;5060361;28;20040;-85
2022/09/21 06:55:27;;;;;;;9.60;3.83;;;;;;;;;;5060054;28;20109;-84
2022/09/21 06:57:53;;;;;;;6.65;3.80;;;;;;;;;;5054545;28;20027;-86
2022/09/21 07:00:18;;;;;;;6.53;3.90;;;;;;;;;;5054751;28;20103;-84
2022/09/21 07:02:44;;;;;;;10.02;4.13;;;;;;;;;;5063717;28;20024;-84
2022/09/21 07:05:10;;;;;;;8.95;4.03;;;;;;;;;;5068458;28;20044;-85
2022/09/21 07:07:35;;;;;;;6.38;3.35;;;;;;;;;;5057856;28;20475;-84
2022/09/21 07:10:02;;;;;;;6.20;3.63;;;;;;;;;;5056942;28;20020;-85
2022/09/21 07:12:28;;;;;;;6.03;3.55;;;;;;;;;;5059046;28;20146;-85
2022/09/21 07:14:54;;;;;;;7.53;3.25;;;;;;;;;;5052415;28;20025;-85
2022/09/21 07:17:19;;;;;;;5.63;3.58;;;;;;;;;;5059800;28;20025;-84
2022/09/21 07:19:44;;;;;;;8.75;3.15;;;;;;;;;;5060585;28;20028;-84
2022/09/21 07:22:10;;;;;;;4.95;3.38;;;;;;;;;;5065678;28;20592;-85
2022/09/21 07:24:35;;;;;;;6.97;3.67;;;;;;;;;;5048209;28;20120;-84
2022/09/21 07:27:00;;;;;;;4.63;3.65;;;;;;;;;;5041732;28;20028;-83
2022/09/21 07:29:26;;;;;;;4.72;3.35;;;;;;;;;;5043193;28;20037;-84
2022/09/21 07:31:51;;;;;;;7.05;3.92;;;;;;;;;;5042123;28;20032;-84
2022/09/21 07:34:16;;;;;;;5.82;3.65;;;;;;;;;;5043661;28;20442;-84
2022/09/21 07:36:42;;;;;;;8.00;3.97;;;;;;;;;;5040937;28;20025;-84
2022/09/21 07:39:08;;;;;;;8.15;3.83;;;;;;;;;;5055322;28;20487;-83
2022/09/21 07:41:34;;;;;;;9.43;3.67;;;;;;;;;;5054695;28;20048;-84
2022/09/21 07:44:00;;;;;;;8.95;3.83;;;;;;;;;;5061633;28;20033;-84
2022/09/21 07:46:26;;;;;;;7.18;3.45;;;;;;;;;;5045774;28;20089;-84
2022/09/21 07:48:55;;;;;;;6.38;3.47;;;;;;;;;;5056801;28;20033;-83
2022/09/21 07:51:21;;;;;;;7.57;4.07;;;;;;;;;;5052697;28;20044;-85
2022/09/21 07:53:47;;;;;;;5.45;3.40;;;;;;;;;;5054349;28;20021;-84
2022/09/21 07:56:14;;;;;;;8.82;3.97;;;;;;;;;;5051556;28;20036;-84
2022/09/21 08:01:25;;;;;;;6.85;3.33;;;;;;;;;;5048943;28;20075;-84
2022/09/21 08:03:52;;;;;;;6.72;3.30;;;;;;;;;;5053377;28;20048;-84
2022/09/21 08:06:19;;;;;;;5.97;3.53;;;;;;;;;;5048860;28;20051;-84
2022/09/21 08:08:46;;;;;;;5.15;3.05;;;;;;;;;;5055664;28;20522;-86
2022/09/21 08:11:16;;;;;;;4.03;2.50;;;;;;;;;;5056051;28;20474;-84
2022/09/21 08:13:42;;;;;;;5.13;3.03;;;;;;;;;;5058000;28;20017;-84
2022/09/21 08:16:08;;;;;;;7.82;3.38;;;;;;;;;;5057182;28;20025;-86
2022/09/21 08:18:37;;;;;;;6.97;2.72;;;;;;;;;;5041744;28;20109;-84
2022/09/21 08:21:02;;;;;;;4.28;2.80;;;;;;;;;;5057309;28;20454;-84
2022/09/21 08:23:29;;;;;;;4.60;2.75;;;;;;;;;;5059116;28;20471;-85
2022/09/21 08:26:02;;;;;;;3.53;2.30;;;;;;;;;;5057765;28;20056;-84
2022/09/21 08:28:30;;;;;;;4.63;2.78;;;;;;;;;;5055594;28;20019;-86
2022/09/21 08:31:09;;;;;;;5.28;2.60;;;;;;;;;;5057304;28;20033;-85
2022/09/21 08:33:34;;;;;;;6.82;3.28;;;;;;;;;;5047366;28;20020;-85
2022/09/21 08:36:00;;;;;;;4.28;2.60;;;;;;;;;;5057143;28;20104;-85
2022/09/21 08:38:30;;;;;;;4.38;2.35;;;;;;;;;;5049407;28;20048;-84
2022/09/21 08:40:56;;;;;;;4.75;2.50;;;;;;;;;;5056120;28;20025;-83
2022/09/21 08:43:34;;;;;;;6.20;3.53;;;;;;;;;;5056091;28;20075;-85
2022/09/21 08:46:02;;;;;;;7.35;2.58;;;;;;;;;;5053053;28;20028;-83
2022/09/21 08:48:31;;;;;;;3.67;2.40;;;;;;;;;;5036212;28;20052;-85
2022/09/21 08:51:01;;;;;;;6.65;2.83;;;;;;;;;;5036604;28;20567;-84
2022/09/21 08:53:33;;;;;;;6.78;2.08;;;;;;;;;;5024011;28;20031;-84
2022/09/21 08:55:59;;;;;;;;;;;;;;;;;;5057709;28;20024;-84
2022/09/21 08:58:27;;;;;;;5.10;2.00;;;;;;;;;;5055474;28;19916;-84
2022/09/21 09:01:30;;;;;;;4.30;1.80;;;;;;;;;;5058467;28;20029;-83
2022/09/21 09:04:23;;;;;;;2.58;1.70;;;;;;;;;;5023982;28;20021;-84
2022/09/21 09:06:51;;;;;;;5.82;1.83;;;;;;;;;;5053886;28;20033;-84
2022/09/21 09:09:22;;;;;;;3.40;1.85;;;;;;;;;;5060973;28;20282;-84
2022/09/21 09:12:19;;;;;;;4.57;1.50;;;;;;;;;;5061226;28;20116;-85
2022/09/21 09:14:53;;;;;;;2.53;1.45;;;;;;;;;;5043080;28;20280;-84
2022/09/21 09:17:37;;;;;;;3.10;1.60;;;;;;;;;;5063733;28;20025;-84
2022/09/21 09:20:23;;;;;;;3.67;1.58;;;;;;;;;;5062018;28;20025;-84
2022/09/21 09:23:06;;;;;;;1.98;1.50;;;;;;;;;;5068734;28;20028;-82
2022/09/21 09:25:40;;;;;;;2.05;1.30;;;;;;;;;;5073703;28;20071;-81
2022/09/21 09:28:28;;;;;;;2.95;1.40;;;;;;;;;;5063945;28;20041;-84
2022/09/21 09:31:02;;;;;;;3.30;1.65;;;;;;;;;;5026893;28;20025;-84
2022/09/21 09:34:08;;;;;;;2.92;1.70;;;;;;;;;;5043406;28;20490;-83
2022/09/21 09:36:35;;;;;;;2.15;1.48;;;;;;;;;;5041625;28;20036;-81
2022/09/21 09:39:04;;;;;;;1.95;1.50;;;;;;;;;;5046165;28;20165;-83
2022/09/21 09:41:32;;;;;;;2.97;1.65;;;;;;;;;;5046051;28;20029;-84
2022/09/21 09:44:06;;;;;;;3.70;1.65;;;;;;;;;;5044633;28;20024;-82
2022/09/21 09:46:38;;;;;;;2.90;1.63;;;;;;;;;;5046963;28;20414;-83
2022/09/21 09:49:16;;;;;;;3.10;1.70;;;;;;;;;;5053126;28;20009;-80
2022/09/21 09:51:42;;;;;;;3.53;1.50;;;;;;;;;;5071828;28;20088;-83
2022/09/21 09:54:14;;;;;;;2.45;1.30;;;;;;;;;;5076594;28;20029;-83
2022/09/21 09:56:40;;;;;;;3.05;1.50;;;;;;;;;;5068962;28;20024;-84
2022/09/21 09:59:14;;;;;;;4.78;1.52;;;;;;;;;;5059634;28;20029;-84
2022/09/21 10:01:45;;;;;;;2.17;1.30;;;;;;;;;;5058666;28;20021;-82
2022/09/21 10:04:16;;;;;;;1.35;1.17;;;;;;;;;;5057873;28;20035;-83
2022/09/21 10:06:42;;;;;;;2.07;1.20;;;;;;;;;;5047600;28;20020;-83
2022/09/21 10:09:25;;;;;;;1.65;1.55;;;;;;;;;;5056125;28;20356;-84
2022/09/21 10:11:53;;;;;;;3.35;1.63;;;;;;;;;;5051975;28;20115;-83
2022/09/21 10:14:22;;;;;;;3.38;1.50;;;;;;;;;;5041177;28;20068;-82
2022/09/21 10:16:52;;;;;;;4.97;1.50;;;;;;;;;;5042262;28;20051;-83
2022/09/21 10:19:24;;;;;;;2.67;1.63;;;;;;;;;;5043600;28;20056;-82
2022/09/21 10:22:01;;;;;;;2.25;1.50;;;;;;;;;;5023562;28;20654;-81
2022/09/21 10:24:39;;;;;;;7.00;1.60;;;;;;;;;;5049640;28;20049;-86
2022/09/21 10:27:17;;;;;;;2.67;1.63;;;;;;;;;;5057627;28;20578;-82
2022/09/21 10:29:47;;;;;;;1.92;1.50;;;;;;;;;;5058583;28;20028;-82
2022/09/21 10:32:12;;;;;;;3.35;1.60;;;;;;;;;;5058918;28;20057;-83
2022/09/21 10:34:40;;;;;;;2.67;1.40;;;;;;;;;;5059078;28;20035;-81
2022/09/21 10:37:27;;;;;;;3.38;1.63;;;;;;;;;;5058048;28;20029;-82
2022/09/21 10:39:54;;;;;;;5.97;1.60;;;;;;;;;;5056490;28;20102;-82
2022/09/21 10:42:20;;;;;;;2.60;1.50;;;;;;;;;;5049968;28;20037;-82
2022/09/21 10:45:05;;;;;;;1.77;1.35;;;;;;;;;;5050747;28;20048;-84
2022/09/21 10:47:38;;;;;;;4.38;1.35;;;;;;;;;;5050637;28;20036;-81
2022/09/21 10:50:24;;;;;;;2.00;1.52;;;;;;;;;;5049617;28;20098;-85
2022/09/21 10:52:55;;;;;;;3.05;1.27;;;;;;;;;;5047404;28;20440;-84
2022/09/21 10:55:22;;;;;;;2.47;1.40;;;;;;;;;;5042307;28;20506;-81
2022/09/21 10:57:49;;;;;;;2.13;1.13;;;;;;;;;;5057204;28;20108;-83
2022/09/21 11:00:24;;;;;;;4.22;1.27;;;;;;;;;;5057109;28;20075;-82
2022/09/21 11:02:49;;;;;;;2.25;1.23;;;;;;;;;;5056385;28;20033;-81
2022/09/21 11:05:28;;;;;;;1.92;1.20;;;;;;;;;;5055601;28;20051;-83
2022/09/21 11:08:08;;;;;;;3.13;1.10;;;;;;;;;;5055503;28;20036;-83
2022/09/21 11:11:06;;;;;;;1.90;1.20;;;;;;;;;;5057810;28;20437;-83
2022/09/21 11:13:37;;;;;;;1.20;1.00;;;;;;;;;;5037140;28;20040;-83
2022/09/21 11:16:42;;;;;;;2.38;1.27;;;;;;;;;;5057566;28;20112;-83
2022/09/21 11:19:35;;;;;;;2.13;1.20;;;;;;;;;;5058486;28;20111;-83
2022/09/21 11:22:07;;;;;;;1.35;1.17;;;;;;;;;;5056561;28;20391;-80
2022/09/21 11:24:55;;;;;;;2.03;0.80;;;;;;;;;;5047542;28;20024;-83
2022/09/21 11:27:43;;;;;;;0.85;0.80;;;;;;;;;;5054022;28;20059;-81
2022/09/21 11:30:08;;;;;;;2.58;1.20;;;;;;;;;;5055769;28;20035;-84
2022/09/21 11:32:39;;;;;;;1.25;1.10;;;;;;;;;;5056450;28;20037;-84
2022/09/21 11:35:14;;;;;;;2.05;0.88;;;;;;;;;;5057219;28;20024;-84
2022/09/21 11:37:49;;;;;;;1.55;0.68;;;;;;;;;;5056265;28;20029;-81
2022/09/21 11:40:23;;;;;;;2.20;0.75;;;;;;;;;;5057906;28;20021;-83
2022/09/21 11:43:12;;;;;;;1.05;0.90;;;;;;;;;;5051854;28;20037;-84
2022/09/21 11:46:11;;;;;;;2.72;0.90;;;;;;;;;;5057416;28;20029;-82
2022/09/21 11:48:53;;;;;;;0.95;0.63;;;;;;;;;;5057499;28;20024;-81
2022/09/21 11:51:38;;;;;;;0.68;0.52;;;;;;;;;;5041751;28;20040;-83
2022/09/21 11:54:38;;;;;;;0.82;0.80;;;;;;;;;;5033791;28;20501;-80
2022/09/21 11:57:24;;;;;;;1.42;0.80;;;;;;;;;;5049542;28;20037;-79
2022/09/21 12:00:15;;;;;;;0.47;0.47;;;;;;;;;;5045156;28;20059;-83
2022/09/21 12:03:14;;;;;;;2.42;0.70;;;;;;;;;;5040132;28;20029;-82
2022/09/21 12:06:04;;;;;;;1.15;0.80;;;;;;;;;;5024964;28;20036;-83
2022/09/21 12:09:06;;;;;;;2.08;0.98;;;;;;;;;;5041063;28;20033;-82
2022/09/21 12:11:43;;;;;;;1.85;0.38;;;;;;;;;;5040200;28;20036;-84
2022/09/21 12:14:14;;;;;;;1.65;0.82;;;;;;;;;;5041385;28;20421;-84
2022/09/21 12:17:07;;;;;;;0.95;0.60;;;;;;;;;;5040821;28;20124;-82
2022/09/21 12:19:44;;;;;;;0.47;0.45;;;;;;;;;;5041902;28;20056;-83
2022/09/21 12:22:16;;;;;;;1.65;0.75;;;;;;;;;;5041570;28;20036;-82
2022/09/21 12:24:46;;;;;;;;;;;;;;;;;;5041628;28;20033;-84
2022/09/21 12:27:35;;;;;;;1.17;0.77;;;;;;;;;;5045530;28;19963;-83
2022/09/21 12:30:09;;;;;;;1.25;0.40;;;;;;;;;;5055314;28;20051;-84
2022/09/21 12:33:02;;;;;;;0.40;0.40;;;;;;;;;;5038388;28;20055;-81
2022/09/21 12:36:04;;;;;;;0.40;0.40;;;;;;;;;;5048734;28;20037;-84
2022/09/21 12:39:23;;;;;;;0.65;0.52;;;;;;;;;;5047613;28;20039;-81
2022/09/21 12:41:56;;;;;;;3.00;0.60;;;;;;;;;;5013533;28;20178;-81
2022/09/21 12:44:52;;;;;;;2.28;0.47;;;;;;;;;;5042184;28;20028;-82
2022/09/21 12:47:46;;;;;;;0.70;0.45;;;;;;;;;;5050386;28;20033;-81
2022/09/21 12:50:21;;;;;;;0.85;0.43;;;;;;;;;;5043820;28;20020;-82
2022/09/21 12:52:49;;;;;;;1.40;0.55;;;;;;;;;;5043831;28;20028;-80
2022/09/21 12:55:41;;;;;;;3.42;0.60;;;;;;;;;;5044571;28;20486;-82
2022/09/21 12:58:20;;;;;;;0.70;0.57;;;;;;;;;;5049786;28;20036;-81
2022/09/21 13:01:11;;;;;;;1.88;0.43;;;;;;;;;;5053077;28;20021;-82
2022/09/21 13:03:51;;;;;;;0.47;0.45;;;;;;;;;;5052163;28;20033;-80
2022/09/21 13:06:34;;;;;;;1.42;0.60;;;;;;;;;;5041255;28;20029;-80
2022/09/21 13:09:02;;;;;;;0.75;0.75;;;;;;;;;;5037924;28;20486;-81
2022/09/21 13:11:31;;;;;;;0.40;0.38;;;;;;;;;;5038096;28;20037;-82
2022/09/21 13:14:02;;;;;;;1.27;0.60;;;;;;;;;;5042435;28;20033;-79
2022/09/21 13:16:33;;;;;;;0.57;0.50;;;;;;;;;;5044338;28;20029;-83
2022/09/21 13:19:01;;;;;;;2.42;1.00;;;;;;;;;;5039024;28;20029;-82
2022/09/21 13:21:30;;;;;;;0.57;0.57;;;;;;;;;;5040960;28;20045;-81
2022/09/21 13:24:04;;;;;;;1.38;0.93;;;;;;;;;;5041502;28;20075;-81
2022/09/21 13:26:36;;;;;;;0.88;0.60;;;;;;;;;;5039690;28;20737;-79
2022/09/21 13:29:17;;;;;;;0.60;0.43;;;;;;;;;;5040136;28;20028;-80
2022/09/21 13:31:56;;;;;;;0.40;0.40;;;;;;;;;;5039209;28;20028;-83
2022/09/21 13:34:27;;;;;;;0.45;0.45;;;;;;;;;;5040953;28;20033;-80
2022/09/21 13:37:14;;;;;;;0.40;0.40;;;;;;;;;;5045802;28;20052;-77
2022/09/21 13:39:46;;;;;;;0.90;0.63;;;;;;;;;;5049685;28;20073;-80
2022/09/21 13:42:31;;;;;;;1.42;0.80;;;;;;;;;;5029756;28;20044;-79
2022/09/21 13:44:57;;;;;;;1.73;0.95;;;;;;;;;;5036327;28;21426;-78
2022/09/21 13:47:38;;;;;;;1.30;0.55;;;;;;;;;;5025901;28;20119;-82
2022/09/21 13:50:43;;;;;;;1.25;0.80;;;;;;;;;;5030050;28;20032;-83
2022/09/21 13:53:21;;;;;;;4.55;0.63;;;;;;;;;;5027310;28;20044;-81
2022/09/21 13:56:07;;;;;;;0.50;0.50;;;;;;;;;;5021865;28;20033;-82
2022/09/21 13:58:38;;;;;;;0.57;0.43;;;;;;;;;;5025523;28;20028;-83
2022/09/21 14:01:14;;;;;;;2.08;0.93;;;;;;;;;;5019170;28;20029;-83
2022/09/21 14:03:46;;;;;;;1.40;0.55;;;;;;;;;;5025079;28;20037;-78
2022/09/21 14:06:16;;;;;;;1.42;0.52;;;;;;;;;;5040675;28;20020;-79
2022/09/21 14:08:49;;;;;;;1.48;0.45;;;;;;;;;;5040431;28;20009;-81
2022/09/21 14:11:36;;;;;;;1.20;0.90;;;;;;;;;;5069940;28;20087;-83
2022/09/21 14:14:17;;;;;;;1.38;0.65;;;;;;;;;;5055639;28;20117;-81
2022/09/21 14:16:46;;;;;;;1.67;0.73;;;;;;;;;;5046364;28;20398;-83
2022/09/21 14:19:14;;;;;;;1.85;1.00;;;;;;;;;;5059647;28;20020;-84
2022/09/21 14:21:59;;;;;;;1.27;0.75;;;;;;;;;;5058318;28;20057;-84
2022/09/21 14:24:43;;;;;;;0.60;0.60;;;;;;;;;;5059473;28;20052;-83
2022/09/21 14:27:22;;;;;;;1.05;0.63;;;;;;;;;;5069282;28;20601;-83
2022/09/21 14:29:52;;;;;;;1.80;0.82;;;;;;;;;;5066435;28;20028;-80
2022/09/21 14:32:22;;;;;;;0.52;0.52;;;;;;;;;;5047436;28;20044;-79
2022/09/21 14:34:51;;;;;;;1.17;0.65;;;;;;;;;;5070054;28;20025;-82
2022/09/21 14:37:46;;;;;;;0.45;0.45;;;;;;;;;;5055020;28;20021;-82
2022/09/21 14:40:38;;;;;;;1.17;0.60;;;;;;;;;;5023705;28;21319;-80
2022/09/21 14:43:11;;;;;;;;;;;;;;;;;;5020841;28;20080;-80
2022/09/21 14:46:15;;;;;;;1.98;0.75;;;;;;;;;;5036521;28;19921;-77
2022/09/21 14:48:55;;;;;;;1.10;0.32;;;;;;;;;;5033127;28;20083;-81
2022/09/21 14:51:23;;;;;;;0.73;0.70;;;;;;;;;;5035777;28;20032;-82
2022/09/21 14:54:11;;;;;;;0.68;0.50;;;;;;;;;;5036579;28;20047;-84
2022/09/21 14:57:13;;;;;;;3.40;0.70;;;;;;;;;;5036710;28;20177;-79
2022/09/21 14:59:57;;;;;;;0.93;0.50;;;;;;;;;;5035315;28;20064;-81
2022/09/21 15:02:26;;;;;;;0.50;0.50;;;;;;;;;;5037558;28;20064;-81
2022/09/21 15:05:30;;;;;;;1.08;0.57;;;;;;;;;;5046936;28;20238;-82
2022/09/21 15:11:05;;;;;;;1.40;0.80;;;;;;;;;;5042247;28;20032;-84
2022/09/21 15:13:59;;;;;;;0.55;0.55;;;;;;;;;;5040770;28;20118;-84
2022/09/21 15:16:37;;;;;;;3.20;0.88;;;;;;;;;;5048440;28;20064;-81
2022/09/21 15:19:22;;;;;;;1.10;0.50;;;;;;;;;;5050894;28;20016;-82
2022/09/21 15:21:56;;;;;;;0.47;0.45;;;;;;;;;;5041874;28;20365;-83
2022/09/21 15:24:31;;;;;;;0.80;0.75;;;;;;;;;;5041822;28;20060;-82
2022/09/21 15:27:16;;;;;;;0.57;0.57;;;;;;;;;;5041071;28;20096;-82
2022/09/21 15:29:47;;;;;;;1.42;0.63;;;;;;;;;;5043378;28;20025;-84